Benone, United Kingdom
Current Conditions -  °F | °C
As of 9:20 AM on Wednesday 22 Oct 2014 (Local Time) from EGAE Reporting Station
Light Rain Light Rain  
Wind Chill: 52°   Ceiling: 3800
Heat Index: 52°   Visibility: 6mi
Dew Point: 50°   Wind: 18mph
Humidity: 94%   Direction: 230°SW
Pressure: 30.09"   Gusts: NA
Location:  55.17°N, 6.88°W
Report Text: EGAE 220820Z 23016KT 9000 -RA SCT015 OVC038 11/10 Q1019
Loading
Personal Weather Stations






























Interactive Weather Map New forecast layout! Learn more

10-Day Weather Forecast

Advertisements
Track Severe Weather on mobile